createdAt,value
2023-08-20T00:00:27.033Z,27.80
2023-08-20T00:02:59.737Z,27.80
2023-08-20T00:35:37.797Z,28.30
2023-08-20T00:38:06.399Z,28.40
2023-08-20T00:40:33.993Z,28.40
2023-08-20T00:43:01.843Z,28.40
2023-08-20T00:45:30.311Z,28.50
2023-08-20T00:47:58.433Z,28.50
2023-08-20T00:50:26.255Z,28.60
2023-08-20T00:52:53.949Z,28.70
2023-08-20T00:55:21.613Z,28.70
2023-08-20T00:57:49.360Z,28.80
2023-08-20T01:00:17.388Z,28.80
2023-08-20T01:02:48.499Z,28.90
2023-08-20T01:05:18.213Z,28.90
2023-08-20T01:08:04.631Z,28.90
2023-08-20T01:10:45.143Z,29.00
2023-08-20T01:13:13.450Z,29.00
2023-08-20T01:15:41.212Z,29.10
2023-08-20T01:18:08.881Z,29.10
2023-08-20T01:20:41.229Z,29.10
2023-08-20T01:23:10.226Z,29.10
2023-08-20T01:25:47.671Z,29.10
2023-08-20T01:28:18.311Z,29.10
2023-08-20T01:30:46.176Z,29.20
2023-08-20T01:33:14.557Z,29.20
2023-08-20T01:35:42.559Z,29.10
2023-08-20T01:38:10.160Z,29.10
2023-08-20T01:40:38.157Z,29.20
2023-08-20T01:43:05.896Z,29.20
2023-08-20T01:45:33.479Z,29.20
2023-08-20T01:48:02.799Z,29.20
2023-08-20T01:50:31.289Z,29.20
2023-08-20T01:55:35.235Z,29.30
2023-08-20T01:58:03.043Z,29.40
2023-08-20T02:00:32.732Z,29.40
2023-08-20T02:03:00.411Z,29.50
2023-08-20T02:05:28.087Z,29.50
2023-08-20T02:07:55.715Z,29.50
2023-08-20T02:10:23.368Z,29.60
2023-08-20T02:12:50.987Z,29.60
2023-08-20T02:15:18.730Z,29.70
2023-08-20T02:17:47.279Z,29.70
2023-08-20T02:20:14.988Z,29.70
2023-08-20T02:22:42.568Z,29.80
2023-08-20T02:25:10.325Z,29.90
2023-08-20T02:27:38.932Z,29.90
2023-08-20T02:30:07.446Z,30.00
2023-08-20T02:32:35.168Z,30.00
2023-08-20T02:35:03.030Z,30.00
2023-08-20T02:37:30.614Z,30.10
2023-08-20T02:39:58.224Z,30.20
2023-08-20T02:42:26.010Z,30.20
2023-08-20T02:44:56.876Z,30.20
2023-08-20T02:47:24.478Z,30.30
2023-08-20T02:49:52.184Z,30.40
2023-08-20T02:52:20.231Z,30.50
2023-08-20T02:54:47.965Z,30.60
2023-08-20T02:57:16.059Z,30.70
2023-08-20T02:59:43.655Z,30.90
2023-08-20T03:02:14.061Z,30.90
2023-08-20T03:04:42.059Z,31.00
2023-08-20T03:07:09.942Z,31.10
2023-08-20T03:09:37.850Z,31.10
2023-08-20T03:14:53.416Z,31.10
2023-08-20T03:17:21.119Z,31.20
2023-08-20T03:19:56.520Z,31.20
2023-08-20T03:22:30.222Z,31.30
2023-08-20T03:24:57.924Z,31.40
2023-08-20T03:27:38.312Z,31.50
2023-08-20T03:30:06.551Z,31.60
2023-08-20T03:32:37.374Z,31.70
2023-08-20T03:35:08.668Z,31.80
2023-08-20T03:37:38.096Z,31.80
2023-08-20T03:40:06.345Z,31.80
2023-08-20T03:42:34.364Z,31.80
2023-08-20T03:45:01.974Z,31.90
2023-08-20T03:47:32.566Z,32.00
2023-08-20T03:50:00.414Z,32.00
2023-08-20T03:52:28.788Z,32.00
2023-08-20T03:54:57.790Z,32.10
2023-08-20T03:57:25.576Z,32.10
2023-08-20T03:59:53.359Z,32.10
2023-08-20T04:02:20.967Z,32.10
2023-08-20T04:04:48.640Z,32.30
2023-08-20T04:07:16.713Z,32.30
2023-08-20T04:12:20.766Z,32.30
2023-08-20T04:14:48.365Z,32.30
2023-08-20T04:19:51.614Z,32.30
2023-08-20T04:22:19.329Z,32.40
2023-08-20T04:24:49.054Z,32.50
2023-08-20T04:27:16.744Z,32.50
2023-08-20T04:29:47.586Z,32.60
2023-08-20T04:32:15.366Z,32.60
2023-08-20T04:34:43.204Z,32.70
2023-08-20T04:37:10.876Z,32.70
2023-08-20T04:39:38.799Z,32.70
2023-08-20T04:42:06.498Z,32.80
2023-08-20T04:44:34.098Z,32.80
2023-08-20T04:47:02.220Z,32.90
2023-08-20T05:00:22.778Z,32.90
2023-08-20T05:02:50.632Z,33.00
2023-08-20T05:05:18.412Z,33.10
2023-08-20T05:07:47.031Z,33.10
2023-08-20T05:10:15.095Z,33.20
2023-08-20T05:12:42.715Z,33.20
2023-08-20T05:15:13.374Z,33.30
2023-08-20T05:17:41.872Z,33.30
2023-08-20T05:20:10.720Z,33.30
2023-08-20T05:30:58.430Z,33.50
2023-08-20T05:33:26.421Z,33.50
2023-08-20T05:35:54.100Z,33.50
2023-08-20T05:38:21.863Z,33.40
2023-08-20T05:40:51.175Z,33.40
2023-08-20T05:43:19.561Z,33.30
2023-08-20T06:02:20.205Z,33.30
2023-08-20T06:26:41.067Z,33.40
2023-08-20T06:29:09.554Z,33.40
2023-08-20T06:31:37.287Z,33.40
2023-08-20T06:34:05.316Z,33.50
2023-08-20T06:36:33.050Z,33.50
2023-08-20T06:39:00.785Z,33.40
2023-08-20T06:41:31.830Z,33.50
2023-08-20T06:43:59.500Z,33.40
2023-08-20T06:46:27.380Z,33.40
2023-08-20T06:48:56.338Z,33.50
2023-08-20T06:51:25.051Z,33.50
2023-08-20T06:53:53.129Z,33.50
2023-08-20T06:56:20.851Z,33.50
2023-08-20T06:58:48.499Z,33.60
2023-08-20T07:03:51.595Z,33.60
2023-08-20T07:06:20.118Z,33.60
2023-08-20T07:08:48.944Z,33.70
2023-08-20T07:11:16.864Z,33.70
2023-08-20T07:13:44.464Z,33.80
2023-08-20T07:16:12.517Z,33.80
2023-08-20T07:18:40.405Z,33.80
2023-08-20T07:21:09.425Z,33.80
2023-08-20T07:23:37.399Z,33.90
2023-08-20T07:26:09.720Z,33.90
2023-08-20T07:28:56.575Z,33.90
2023-08-20T07:31:30.663Z,33.90
2023-08-20T07:36:32.220Z,33.90
2023-08-20T07:39:02.127Z,33.90
2023-08-20T07:41:30.274Z,33.90
2023-08-20T07:52:14.043Z,34.00
2023-08-20T07:57:27.115Z,34.10
2023-08-20T08:00:02.884Z,34.10
2023-08-20T08:02:30.652Z,34.10
2023-08-20T08:05:07.259Z,34.00
2023-08-20T08:07:35.152Z,34.00
2023-08-20T08:10:02.988Z,34.00
2023-08-20T08:12:30.605Z,34.00
2023-08-20T08:14:58.641Z,33.90
2023-08-20T08:17:28.419Z,33.90
2023-08-20T08:19:59.239Z,34.00
2023-08-20T08:22:26.908Z,33.90
2023-08-20T08:24:54.653Z,33.90
2023-08-20T08:27:22.287Z,33.90
2023-08-20T08:29:50.155Z,33.80
2023-08-20T08:32:17.952Z,33.80
2023-08-20T08:34:45.866Z,33.80
2023-08-20T08:37:13.446Z,33.80
2023-08-20T08:39:41.075Z,33.70
2023-08-20T08:42:09.300Z,33.60
2023-08-20T08:44:39.067Z,33.60
2023-08-20T08:47:07.039Z,33.60
2023-08-20T08:49:37.724Z,33.50
2023-08-20T08:52:06.204Z,33.50
2023-08-20T08:54:37.889Z,33.40
2023-08-20T08:57:06.430Z,33.40
2023-08-20T08:59:34.209Z,33.30
2023-08-20T09:02:02.289Z,33.30
2023-08-20T09:04:30.004Z,33.30
2023-08-20T09:06:58.815Z,33.30
2023-08-20T09:09:30.998Z,33.30
2023-08-20T09:11:58.976Z,33.20
2023-08-20T09:14:31.112Z,33.10
2023-08-20T09:17:03.841Z,33.10
2023-08-20T09:19:34.785Z,33.10
2023-08-20T09:22:03.563Z,33.10
2023-08-20T09:24:38.310Z,33.10
2023-08-20T09:27:07.445Z,33.00
2023-08-20T09:29:35.587Z,33.00
2023-08-20T09:32:06.611Z,32.90
2023-08-20T09:34:41.075Z,32.90
2023-08-20T09:37:15.543Z,32.80
2023-08-20T09:39:44.371Z,32.60
2023-08-20T09:42:12.320Z,32.40
2023-08-20T09:44:42.298Z,32.20
2023-08-20T09:47:09.870Z,32.00
2023-08-20T09:49:41.285Z,31.80
2023-08-20T09:52:10.168Z,31.50
2023-08-20T09:54:50.265Z,31.40
2023-08-20T09:57:38.219Z,31.20
2023-08-20T10:00:07.543Z,31.10
2023-08-20T10:02:35.516Z,31.00
2023-08-20T10:05:04.514Z,30.90
2023-08-20T10:07:35.660Z,30.90
2023-08-20T10:10:05.470Z,30.90
2023-08-20T10:12:33.496Z,30.90
2023-08-20T10:15:01.750Z,30.80
2023-08-20T10:17:33.332Z,30.80
2023-08-20T10:20:03.288Z,30.80
2023-08-20T10:22:41.443Z,30.70
2023-08-20T10:25:14.010Z,30.70
2023-08-20T10:27:43.897Z,30.60
2023-08-20T10:30:16.837Z,30.50
2023-08-20T10:32:54.595Z,30.50
2023-08-20T10:35:27.092Z,30.40
2023-08-20T10:38:04.758Z,30.30
2023-08-20T10:40:50.963Z,30.30
2023-08-20T10:43:27.816Z,30.20
2023-08-20T10:46:09.931Z,30.10
2023-08-20T10:48:40.561Z,30.10
2023-08-20T10:51:15.744Z,30.00
2023-08-20T10:53:44.650Z,30.00
2023-08-20T10:56:13.422Z,29.90
2023-08-20T10:58:46.532Z,29.90
2023-08-20T11:01:16.630Z,29.80
2023-08-20T11:03:45.998Z,29.80
2023-08-20T11:06:13.800Z,29.70
2023-08-20T11:08:41.464Z,29.70
2023-08-20T11:11:09.596Z,29.60
2023-08-20T11:13:37.349Z,29.50
2023-08-20T11:16:05.972Z,29.50
2023-08-20T11:18:35.151Z,29.40
2023-08-20T11:21:03.104Z,29.40
2023-08-20T11:23:30.988Z,29.20
2023-08-20T11:25:59.025Z,29.10
2023-08-20T11:28:27.309Z,28.80
2023-08-20T11:30:56.257Z,28.60
2023-08-20T11:33:24.187Z,28.30
2023-08-20T11:35:52.978Z,28.10
2023-08-20T11:38:21.865Z,27.90
2023-08-20T11:40:49.577Z,27.70
2023-08-20T11:43:18.908Z,27.60
2023-08-20T11:45:50.059Z,27.50
2023-08-20T11:48:18.247Z,27.30
2023-08-20T11:50:45.952Z,27.30
2023-08-20T11:53:13.710Z,27.20
2023-08-20T11:55:42.624Z,27.20
2023-08-20T11:58:11.888Z,27.10
2023-08-20T12:00:39.955Z,27.10
2023-08-20T12:03:09.683Z,27.00
2023-08-20T12:05:37.315Z,27.00
2023-08-20T12:08:05.792Z,27.00
2023-08-20T12:10:33.699Z,26.90
2023-08-20T12:13:01.429Z,26.90
2023-08-20T12:15:29.090Z,26.90
2023-08-20T12:17:57.916Z,26.90
2023-08-20T12:20:25.619Z,26.90
2023-08-20T12:22:54.076Z,26.90
2023-08-20T12:25:21.769Z,26.90
2023-08-20T12:27:49.330Z,26.90
2023-08-20T12:30:16.953Z,26.80
2023-08-20T12:32:45.335Z,26.80
2023-08-20T12:35:12.952Z,26.80
2023-08-20T12:37:40.595Z,26.90
2023-08-20T12:40:13.164Z,26.90
2023-08-20T12:42:43.062Z,26.90
2023-08-20T12:45:14.202Z,26.90
2023-08-20T12:47:42.165Z,26.90
2023-08-20T12:50:10.184Z,26.90
2023-08-20T12:52:37.737Z,26.80
2023-08-20T12:55:05.544Z,26.80
2023-08-20T12:57:36.518Z,26.90
2023-08-20T13:00:12.062Z,26.80
2023-08-20T13:02:39.797Z,26.80
2023-08-20T13:05:08.551Z,26.90
2023-08-20T13:07:36.643Z,26.90
2023-08-20T13:10:04.666Z,27.00
2023-08-20T13:12:33.700Z,26.90
2023-08-20T13:15:01.453Z,27.00
2023-08-20T13:17:29.206Z,27.00
2023-08-20T13:19:57.378Z,27.00
2023-08-20T13:22:24.932Z,26.90
2023-08-20T13:24:52.495Z,26.90
2023-08-20T13:27:20.044Z,27.00
2023-08-20T13:29:48.071Z,27.00
2023-08-20T13:32:15.615Z,27.00
2023-08-20T13:34:43.147Z,27.00
2023-08-20T13:37:10.720Z,27.00
2023-08-20T13:39:38.366Z,27.00
2023-08-20T13:42:06.028Z,27.00
2023-08-20T13:44:33.589Z,27.00
2023-08-20T13:47:01.317Z,27.00
2023-08-20T13:49:28.856Z,27.00
2023-08-20T13:51:57.233Z,27.00
2023-08-20T13:54:25.906Z,26.90
2023-08-20T13:56:53.478Z,26.90
2023-08-20T13:59:21.122Z,26.90
2023-08-20T14:01:48.717Z,26.80
2023-08-20T14:04:18.155Z,26.80
2023-08-20T14:06:46.084Z,26.80
2023-08-20T14:09:13.598Z,26.80
2023-08-20T14:11:41.278Z,26.80
2023-08-20T14:14:08.906Z,26.80
2023-08-20T14:16:36.600Z,26.80
2023-08-20T14:19:05.014Z,26.80
2023-08-20T14:21:32.695Z,26.80
2023-08-20T14:24:00.260Z,26.80
2023-08-20T14:26:28.466Z,26.80
2023-08-20T14:28:56.339Z,26.80
2023-08-20T14:31:24.241Z,26.90
2023-08-20T14:33:51.979Z,26.90
2023-08-20T14:36:19.535Z,26.90
2023-08-20T14:38:47.077Z,27.00
2023-08-20T14:41:14.680Z,27.00
2023-08-20T14:43:43.380Z,27.00
2023-08-20T14:46:11.017Z,26.90
2023-08-20T14:48:42.469Z,26.90
2023-08-20T14:51:10.774Z,26.90
2023-08-20T14:53:38.472Z,26.90
2023-08-20T14:56:06.105Z,27.00
2023-08-20T14:58:33.745Z,26.90
2023-08-20T15:01:01.328Z,27.00
2023-08-20T15:03:28.889Z,27.00
2023-08-20T15:05:56.513Z,26.90
2023-08-20T15:08:24.615Z,26.90
2023-08-20T15:10:59.286Z,26.90
2023-08-20T15:13:29.643Z,26.90
2023-08-20T15:15:57.231Z,26.90
2023-08-20T15:18:25.165Z,26.90
2023-08-20T15:20:59.435Z,26.90
2023-08-20T15:23:28.138Z,26.80
2023-08-20T15:25:56.226Z,26.80
2023-08-20T15:28:27.600Z,26.70
2023-08-20T15:30:55.606Z,26.70
2023-08-20T15:33:23.251Z,26.70
2023-08-20T15:35:51.199Z,26.80
2023-08-20T15:38:18.895Z,26.80
2023-08-20T15:40:46.461Z,26.80
2023-08-20T15:43:14.082Z,26.90
2023-08-20T15:45:42.485Z,26.90
2023-08-20T15:48:10.776Z,26.90
2023-08-20T15:50:39.840Z,26.90
2023-08-20T15:53:07.384Z,26.80
2023-08-20T15:55:34.980Z,26.80
2023-08-20T15:58:03.286Z,26.80
2023-08-20T16:00:32.139Z,26.80
2023-08-20T16:02:59.776Z,26.80
2023-08-20T16:05:27.351Z,26.80
2023-08-20T16:07:54.931Z,26.80
2023-08-20T16:10:22.630Z,26.80
2023-08-20T16:12:50.183Z,26.80
2023-08-20T16:15:18.013Z,26.80
2023-08-20T16:17:45.570Z,26.80
2023-08-20T16:20:13.276Z,26.80
2023-08-20T16:22:40.931Z,26.80
2023-08-20T16:25:08.766Z,26.80
2023-08-20T16:27:39.678Z,26.80
2023-08-20T16:30:09.155Z,26.80
2023-08-20T16:32:36.761Z,26.80
2023-08-20T16:35:04.530Z,26.80
2023-08-20T16:37:32.188Z,26.80
2023-08-20T16:39:59.746Z,26.70
2023-08-20T16:42:27.368Z,26.70
2023-08-20T16:44:55.029Z,26.70
2023-08-20T16:47:22.586Z,26.80
2023-08-20T16:49:50.246Z,26.70
2023-08-20T16:52:18.613Z,26.70
2023-08-20T16:54:48.203Z,26.70
2023-08-20T16:57:15.901Z,26.70
2023-08-20T16:59:43.533Z,26.70
2023-08-20T17:02:12.614Z,26.70
2023-08-20T17:04:40.220Z,26.70
2023-08-20T17:07:07.901Z,26.70
2023-08-20T17:09:35.464Z,26.70
2023-08-20T17:12:04.113Z,26.70
2023-08-20T17:14:32.144Z,26.70
2023-08-20T17:17:00.653Z,26.60
2023-08-20T17:19:28.221Z,26.60
2023-08-20T17:21:56.814Z,26.60
2023-08-20T17:24:24.366Z,26.60
2023-08-20T17:26:52.395Z,26.60
2023-08-20T17:29:19.944Z,26.60
2023-08-20T17:31:48.040Z,26.60
2023-08-20T17:34:17.438Z,26.60
2023-08-20T17:36:45.001Z,26.60
2023-08-20T17:39:13.046Z,26.60
2023-08-20T17:41:40.644Z,26.60
2023-08-20T17:44:08.990Z,26.60
2023-08-20T17:46:49.773Z,26.60
2023-08-20T17:49:20.688Z,26.60
2023-08-20T17:51:49.964Z,26.60
2023-08-20T17:54:18.726Z,26.60
2023-08-20T17:56:46.273Z,26.60
2023-08-20T17:59:13.852Z,26.60
2023-08-20T18:01:41.509Z,26.50
2023-08-20T18:04:09.145Z,26.50
2023-08-20T18:06:37.446Z,26.50
2023-08-20T18:09:05.058Z,26.50
2023-08-20T18:11:32.593Z,26.50
2023-08-20T18:14:00.882Z,26.50
2023-08-20T18:16:29.174Z,26.50
2023-08-20T18:18:56.912Z,26.50
2023-08-20T18:21:25.307Z,26.50
2023-08-20T18:23:53.901Z,26.40
2023-08-20T18:26:21.670Z,26.40
2023-08-20T18:28:50.201Z,26.40
2023-08-20T18:31:17.858Z,26.40
2023-08-20T18:33:45.970Z,26.40
2023-08-20T18:36:13.604Z,26.40
2023-08-20T18:38:42.324Z,26.40
2023-08-20T18:41:19.058Z,26.40
2023-08-20T18:43:46.752Z,26.40
2023-08-20T18:46:14.364Z,26.40
2023-08-20T18:48:42.744Z,26.30
2023-08-20T18:51:10.272Z,26.30
2023-08-20T18:53:37.993Z,26.30
2023-08-20T18:56:07.515Z,26.30
2023-08-20T18:58:35.586Z,26.20
2023-08-20T19:01:03.253Z,26.20
2023-08-20T19:03:32.230Z,26.20
2023-08-20T19:05:59.896Z,26.20
2023-08-20T19:08:27.519Z,26.10
2023-08-20T19:10:55.114Z,26.10
2023-08-20T19:13:22.756Z,26.10
2023-08-20T19:15:50.938Z,26.10
2023-08-20T19:18:19.666Z,26.10
2023-08-20T19:20:51.416Z,26.00
2023-08-20T19:23:19.387Z,26.00
2023-08-20T19:25:47.357Z,26.10
2023-08-20T19:28:15.491Z,26.10
2023-08-20T19:30:46.931Z,26.10
2023-08-20T19:33:16.730Z,26.10
2023-08-20T19:35:45.907Z,26.10
2023-08-20T19:38:17.528Z,26.00
2023-08-20T19:40:46.965Z,26.00
2023-08-20T19:43:15.928Z,26.00
2023-08-20T19:45:43.572Z,26.00
2023-08-20T19:48:12.690Z,26.00
2023-08-20T19:50:41.674Z,26.00
2023-08-20T19:53:09.550Z,26.00
2023-08-20T19:55:41.219Z,25.90
2023-08-20T19:58:08.753Z,25.90
2023-08-20T20:00:36.456Z,25.90
2023-08-20T20:03:04.475Z,25.90
2023-08-20T20:05:32.181Z,25.80
2023-08-20T20:08:00.653Z,25.80
2023-08-20T20:10:28.298Z,25.80
2023-08-20T20:12:55.974Z,25.80
2023-08-20T20:15:23.608Z,25.80
2023-08-20T20:17:51.226Z,25.80
2023-08-20T20:20:19.478Z,25.90
2023-08-20T20:22:47.091Z,25.80
2023-08-20T20:25:14.677Z,25.80
2023-08-20T20:27:43.132Z,25.80
2023-08-20T20:30:10.954Z,25.80
2023-08-20T20:32:38.878Z,25.80
2023-08-20T20:35:07.086Z,25.90
2023-08-20T20:37:35.027Z,25.80
2023-08-20T20:40:09.061Z,25.90
2023-08-20T20:42:37.907Z,25.90
2023-08-20T20:45:07.357Z,25.90
2023-08-20T20:47:35.243Z,25.90
2023-08-20T20:50:03.006Z,26.00
2023-08-20T20:52:30.607Z,26.00
2023-08-20T20:54:58.241Z,25.90
2023-08-20T20:57:25.841Z,26.00
2023-08-20T20:59:53.422Z,25.90
2023-08-20T21:02:21.100Z,25.90
2023-08-20T21:04:48.773Z,26.00
2023-08-20T21:07:16.328Z,25.90
2023-08-20T21:09:44.683Z,25.90
2023-08-20T21:12:12.206Z,25.90
2023-08-20T21:14:39.729Z,25.80
2023-08-20T21:17:07.415Z,25.80
2023-08-20T21:19:34.975Z,25.80
2023-08-20T21:22:11.442Z,25.70
2023-08-20T21:24:39.255Z,25.80
2023-08-20T21:27:08.663Z,25.70
2023-08-20T21:29:36.803Z,25.70
2023-08-20T21:32:04.495Z,25.80
2023-08-20T21:34:33.047Z,25.70
2023-08-20T21:37:01.037Z,25.80
2023-08-20T21:39:28.891Z,25.80
2023-08-20T21:41:56.583Z,25.80
2023-08-20T21:44:24.278Z,25.80
2023-08-20T21:46:55.746Z,25.80
2023-08-20T21:49:25.259Z,25.90
2023-08-20T21:51:53.248Z,25.90
2023-08-20T21:54:21.787Z,25.90
2023-08-20T21:56:50.586Z,25.90
2023-08-20T21:59:18.189Z,25.90
2023-08-20T22:01:45.761Z,25.80
2023-08-20T22:04:13.342Z,25.80
2023-08-20T22:06:40.911Z,25.80
2023-08-20T22:09:09.759Z,25.90
2023-08-20T22:11:37.361Z,25.80
2023-08-20T22:14:04.874Z,25.80
2023-08-20T22:16:32.626Z,25.90
2023-08-20T22:19:00.196Z,25.80
2023-08-20T22:21:27.731Z,25.80
2023-08-20T22:23:55.261Z,25.80
2023-08-20T22:26:22.942Z,25.90
2023-08-20T22:28:51.745Z,25.80
2023-08-20T22:31:19.338Z,25.80
2023-08-20T22:33:47.152Z,25.80
2023-08-20T22:36:14.653Z,25.90
2023-08-20T22:38:42.241Z,25.90
2023-08-20T22:41:09.853Z,25.90
2023-08-20T22:43:37.378Z,25.90
2023-08-20T22:46:04.980Z,25.90
2023-08-20T22:48:33.453Z,25.90
2023-08-20T22:51:00.973Z,25.90
2023-08-20T22:53:28.542Z,25.90
2023-08-20T22:55:56.105Z,25.90
2023-08-20T23:00:59.237Z,26.00
2023-08-20T23:03:26.874Z,26.00
2023-08-20T23:05:54.466Z,26.00
2023-08-20T23:08:22.002Z,26.00
2023-08-20T23:10:49.621Z,26.00
2023-08-20T23:13:17.227Z,26.00
2023-08-20T23:15:45.133Z,26.00
2023-08-20T23:18:12.736Z,26.00
2023-08-20T23:20:40.313Z,26.00
2023-08-20T23:23:07.830Z,26.00
2023-08-20T23:25:35.438Z,26.00
2023-08-20T23:28:05.566Z,26.00
2023-08-20T23:30:33.149Z,25.90
2023-08-20T23:33:00.759Z,25.90
2023-08-20T23:35:29.209Z,25.90
2023-08-20T23:37:56.733Z,25.90
2023-08-20T23:40:24.270Z,25.90
2023-08-20T23:42:51.945Z,25.90
2023-08-20T23:45:19.466Z,25.90
2023-08-20T23:47:47.123Z,25.90
2023-08-20T23:50:14.940Z,25.90
2023-08-20T23:52:42.479Z,25.90
2023-08-20T23:55:10.145Z,25.90
2023-08-20T23:57:37.767Z,25.90
